createdAt,value
2022-09-12T00:01:12.266Z,21.17
2022-09-12T00:03:39.819Z,22.40
2022-09-12T00:06:10.651Z,20.97
2022-09-12T00:08:38.040Z,22.03
2022-09-12T00:11:07.353Z,22.60
2022-09-12T00:13:41.340Z,21.50
2022-09-12T00:16:14.826Z,23.77
2022-09-12T00:18:41.886Z,24.57
2022-09-12T00:21:08.687Z,20.60
2022-09-12T00:23:35.757Z,22.37
2022-09-12T00:26:05.733Z,20.37
2022-09-12T00:28:36.155Z,19.63
2022-09-12T00:31:04.799Z,20.37
2022-09-12T00:33:32.435Z,19.13
2022-09-12T00:35:59.393Z,22.03
2022-09-12T00:38:26.657Z,24.73
2022-09-12T00:40:53.441Z,22.10
2022-09-12T00:43:38.466Z,23.00
2022-09-12T00:46:13.876Z,24.77
2022-09-12T00:48:45.119Z,22.77
2022-09-12T00:51:12.562Z,19.17
2022-09-12T00:53:41.969Z,20.10
2022-09-12T00:56:10.338Z,20.93
2022-09-12T00:58:44.448Z,20.57
2022-09-12T01:01:11.449Z,22.27
2022-09-12T01:03:39.141Z,22.30
2022-09-12T01:06:11.912Z,21.83
2022-09-12T01:08:40.795Z,20.33
2022-09-12T01:11:09.938Z,22.13
2022-09-12T01:13:38.607Z,20.40
2022-09-12T01:16:07.680Z,23.70
2022-09-12T01:18:45.610Z,21.40
2022-09-12T01:21:19.932Z,21.80
2022-09-12T01:24:12.194Z,19.60
2022-09-12T01:26:57.429Z,21.87
2022-09-12T01:29:57.998Z,23.77
2022-09-12T01:32:37.837Z,20.73
2022-09-12T01:35:16.930Z,20.63
2022-09-12T01:37:51.534Z,24.97
2022-09-12T01:40:24.209Z,20.00
2022-09-12T01:42:57.895Z,20.23
2022-09-12T01:45:30.547Z,18.87
2022-09-12T01:48:03.063Z,20.10
2022-09-12T01:50:34.142Z,20.33
2022-09-12T01:53:04.848Z,17.47
2022-09-12T01:55:34.978Z,21.63
2022-09-12T01:58:07.851Z,21.53
2022-09-12T02:00:41.132Z,21.47
2022-09-12T02:03:12.491Z,20.20
2022-09-12T02:05:43.560Z,18.17
2022-09-12T02:08:14.328Z,18.93
2022-09-12T02:10:47.483Z,21.77
2022-09-12T02:13:22.252Z,20.63
2022-09-12T02:15:52.996Z,19.77
2022-09-12T02:18:21.584Z,22.20
2022-09-12T02:20:49.534Z,21.67
2022-09-12T02:23:21.007Z,20.47
2022-09-12T02:25:52.811Z,19.73
2022-09-12T02:28:26.337Z,20.40
2022-09-12T02:31:01.047Z,19.67
2022-09-12T02:33:36.599Z,22.70
2022-09-12T02:36:11.541Z,19.50
2022-09-12T02:38:44.665Z,21.37
2022-09-12T02:41:13.529Z,22.90
2022-09-12T02:43:40.574Z,20.23
2022-09-12T02:46:11.012Z,20.50
2022-09-12T02:48:42.507Z,19.33
2022-09-12T02:51:09.768Z,20.13
2022-09-12T02:53:37.876Z,22.20
2022-09-12T02:56:07.797Z,20.57
2022-09-12T02:58:35.119Z,19.10
2022-09-12T03:01:12.060Z,21.47
2022-09-12T03:03:57.188Z,21.00
2022-09-12T03:06:33.622Z,23.40
2022-09-12T03:09:12.284Z,19.43
2022-09-12T03:12:02.924Z,18.47
2022-09-12T03:14:47.406Z,19.97
2022-09-12T03:17:24.313Z,23.63
2022-09-12T03:20:00.630Z,21.17
2022-09-12T03:22:33.884Z,20.27
2022-09-12T03:25:09.574Z,23.47
2022-09-12T03:27:41.474Z,19.80
2022-09-12T03:30:10.846Z,23.00
2022-09-12T03:32:42.430Z,20.27
2022-09-12T03:35:11.566Z,27.03
2022-09-12T03:37:38.762Z,20.93
2022-09-12T03:40:06.906Z,25.90
2022-09-12T03:42:34.312Z,20.53
2022-09-12T03:45:01.087Z,29.43
2022-09-12T03:47:28.319Z,20.23
2022-09-12T03:49:55.108Z,23.07
2022-09-12T03:52:23.421Z,24.03
2022-09-12T03:54:50.912Z,20.87
2022-09-12T03:57:17.722Z,22.23
2022-09-12T03:59:45.019Z,20.20
2022-09-12T04:02:13.505Z,21.33
2022-09-12T04:04:43.445Z,21.10
2022-09-12T04:07:10.442Z,21.73
2022-09-12T04:09:39.250Z,21.57
2022-09-12T04:12:06.917Z,20.90
2022-09-12T04:14:34.205Z,19.50
2022-09-12T04:17:01.125Z,22.97
2022-09-12T04:19:28.668Z,21.40
2022-09-12T04:21:55.557Z,20.67
2022-09-12T04:24:22.442Z,22.00
2022-09-12T04:26:50.665Z,19.53
2022-09-12T04:29:17.461Z,18.60
2022-09-12T04:31:44.450Z,21.70
2022-09-12T04:34:11.690Z,20.70
2022-09-12T04:36:39.162Z,20.93
2022-09-12T04:39:08.080Z,20.87
2022-09-12T04:41:37.226Z,21.63
2022-09-12T04:44:07.726Z,19.37
2022-09-12T04:46:36.359Z,21.80
2022-09-12T04:49:04.077Z,20.27
2022-09-12T04:51:33.685Z,24.77
2022-09-12T04:54:02.113Z,18.57
2022-09-12T04:56:30.245Z,21.13
2022-09-12T04:58:58.165Z,19.20
2022-09-12T05:01:28.414Z,22.53
2022-09-12T05:03:56.087Z,18.17
2022-09-12T05:06:25.083Z,22.07
2022-09-12T05:08:52.691Z,18.47
2022-09-12T05:11:25.446Z,21.10
2022-09-12T05:13:55.449Z,18.33
2022-09-12T05:16:23.594Z,20.43
2022-09-12T05:18:51.768Z,22.90
2022-09-12T05:21:20.530Z,22.93
2022-09-12T05:23:50.439Z,22.17
2022-09-12T05:26:18.123Z,21.67
2022-09-12T05:28:44.947Z,20.07
2022-09-12T05:31:13.453Z,23.53
2022-09-12T05:33:42.243Z,31.40
2022-09-12T05:36:13.286Z,20.70
2022-09-12T05:38:40.342Z,21.53
2022-09-12T05:41:14.665Z,23.40
2022-09-12T05:43:45.112Z,22.00
2022-09-12T05:46:14.154Z,22.00
2022-09-12T05:48:43.291Z,23.97
2022-09-12T05:51:13.952Z,19.13
2022-09-12T05:53:41.415Z,17.83
2022-09-12T05:56:09.705Z,21.23
2022-09-12T05:58:37.549Z,20.50
2022-09-12T06:01:08.059Z,20.07
2022-09-12T06:03:35.703Z,20.07
2022-09-12T06:06:04.167Z,20.03
2022-09-12T06:08:32.722Z,22.77
2022-09-12T06:11:02.363Z,22.97
2022-09-12T06:13:31.976Z,22.37
2022-09-12T06:16:03.880Z,20.27
2022-09-12T06:18:30.743Z,20.10
2022-09-12T06:20:57.859Z,18.90
2022-09-12T06:23:25.116Z,21.87
2022-09-12T06:25:53.450Z,22.33
2022-09-12T06:28:20.236Z,19.20
2022-09-12T06:30:47.029Z,19.00
2022-09-12T06:33:13.811Z,18.20
2022-09-12T06:35:40.917Z,18.40
2022-09-12T06:38:08.746Z,20.40
2022-09-12T06:40:43.829Z,24.23
2022-09-12T06:43:13.689Z,19.60
2022-09-12T06:45:40.613Z,17.87
2022-09-12T06:48:07.936Z,21.20
2022-09-12T06:50:34.708Z,22.40
2022-09-12T06:53:01.782Z,18.10
2022-09-12T06:55:29.271Z,21.27
2022-09-12T06:57:56.427Z,18.73
2022-09-12T07:00:24.606Z,20.90
2022-09-12T07:02:54.986Z,23.43
2022-09-12T07:05:22.085Z,18.87
2022-09-12T07:07:49.233Z,18.00
2022-09-12T07:10:20.253Z,23.03
2022-09-12T07:12:49.032Z,20.70
2022-09-12T07:15:16.366Z,17.57
2022-09-12T07:17:44.583Z,18.63
2022-09-12T07:20:11.723Z,17.90
2022-09-12T07:22:38.876Z,16.53
2022-09-12T07:25:06.561Z,21.40
2022-09-12T07:27:33.726Z,16.67
2022-09-12T07:30:00.930Z,18.83
2022-09-12T07:32:28.060Z,19.33
2022-09-12T07:34:56.178Z,19.10
2022-09-12T07:37:23.394Z,18.80
2022-09-12T07:39:50.217Z,23.93
2022-09-12T07:42:17.614Z,17.13
2022-09-12T07:44:44.447Z,23.57
2022-09-12T07:47:11.250Z,17.50
2022-09-12T07:49:38.040Z,19.03
2022-09-12T07:52:06.649Z,19.37
2022-09-12T07:54:33.388Z,20.20
2022-09-12T07:57:00.508Z,18.10
2022-09-12T07:59:50.945Z,21.23
2022-09-12T08:02:17.565Z,20.93
2022-09-12T08:04:45.289Z,19.77
2022-09-12T08:07:13.668Z,16.57
2022-09-12T08:09:40.506Z,21.80
2022-09-12T08:12:08.564Z,21.83
2022-09-12T08:14:35.349Z,15.80
2022-09-12T08:17:02.436Z,17.37
2022-09-12T08:19:29.279Z,25.33
2022-09-12T08:21:56.366Z,17.63
2022-09-12T08:24:26.807Z,18.47
2022-09-12T08:26:53.761Z,15.93
2022-09-12T08:29:21.329Z,14.57
2022-09-12T08:31:48.212Z,14.27
2022-09-12T08:34:17.329Z,17.13
2022-09-12T08:36:44.600Z,18.70
2022-09-12T08:39:14.681Z,21.70
2022-09-12T08:41:45.579Z,17.30
2022-09-12T08:44:35.587Z,17.13
2022-09-12T08:47:15.560Z,17.40
2022-09-12T08:49:51.584Z,23.23
2022-09-12T08:52:24.245Z,21.65
2022-09-12T08:54:51.431Z,24.20
2022-09-12T08:57:19.585Z,16.45
2022-09-12T08:59:46.645Z,19.48
2022-09-12T09:02:54.966Z,14.13
2022-09-12T09:05:29.876Z,14.43
2022-09-12T09:08:15.938Z,15.20
2022-09-12T09:10:49.628Z,16.27
2022-09-12T09:13:49.511Z,14.63
2022-09-12T09:16:23.506Z,13.38
2022-09-12T09:18:52.859Z,14.80
2022-09-12T09:21:26.597Z,16.05
2022-09-12T09:24:00.263Z,13.27
2022-09-12T09:26:35.993Z,15.30
2022-09-12T09:29:11.296Z,13.25
2022-09-12T09:31:39.513Z,13.20
2022-09-12T09:34:14.523Z,17.45
2022-09-12T09:36:49.766Z,14.60
2022-09-12T09:39:26.666Z,16.23
2022-09-12T09:42:08.788Z,14.35
2022-09-12T09:44:37.415Z,15.40
2022-09-12T09:47:05.270Z,15.90
2022-09-12T09:49:34.474Z,15.77
2022-09-12T09:52:02.451Z,13.45
2022-09-12T09:54:36.381Z,11.70
2022-09-12T09:57:05.243Z,13.20
2022-09-12T09:59:34.121Z,9.80
2022-09-12T10:02:23.621Z,9.75
2022-09-12T10:04:55.235Z,15.02
2022-09-12T10:07:23.500Z,14.20
2022-09-12T10:10:05.975Z,11.25
2022-09-12T10:12:33.552Z,8.75
2022-09-12T10:15:04.092Z,9.07
2022-09-12T10:17:41.329Z,7.97
2022-09-12T10:20:30.560Z,6.82
2022-09-12T10:22:59.115Z,6.90
2022-09-12T10:25:27.182Z,7.60
2022-09-12T10:27:56.834Z,8.85
2022-09-12T10:30:28.811Z,7.72
2022-09-12T10:33:06.362Z,8.57
2022-09-12T10:35:46.040Z,7.32
2022-09-12T10:38:21.316Z,8.02
2022-09-12T10:40:57.033Z,6.13
2022-09-12T10:43:27.908Z,6.07
2022-09-12T10:45:58.438Z,8.98
2022-09-12T10:48:29.993Z,5.63
2022-09-12T10:50:57.947Z,5.85
2022-09-12T10:53:29.982Z,8.55
2022-09-12T10:56:08.214Z,5.03
2022-09-12T10:59:11.788Z,4.47
2022-09-12T11:01:41.803Z,4.43
2022-09-12T11:04:42.047Z,4.80
2022-09-12T11:07:22.188Z,4.55
2022-09-12T11:09:54.653Z,3.90
2022-09-12T11:12:29.335Z,6.75
2022-09-12T11:15:07.582Z,5.38
2022-09-12T11:17:45.358Z,6.50
2022-09-12T11:20:42.104Z,7.82
2022-09-12T11:23:42.349Z,7.85
2022-09-12T11:26:28.345Z,5.90
2022-09-12T11:29:04.381Z,9.98
2022-09-12T11:31:51.910Z,9.07
2022-09-12T11:34:27.546Z,7.90
2022-09-12T11:37:17.958Z,7.35
2022-09-12T11:39:47.116Z,5.20
2022-09-12T11:42:18.656Z,9.32
2022-09-12T11:44:48.878Z,7.95
2022-09-12T11:47:15.865Z,11.82
2022-09-12T11:49:48.552Z,9.57
2022-09-12T11:52:19.851Z,7.50
2022-09-12T11:54:53.678Z,10.13
2022-09-12T11:57:28.823Z,8.15
2022-09-12T11:59:59.975Z,6.00
2022-09-12T12:02:31.753Z,9.20
2022-09-12T12:05:20.740Z,9.70
2022-09-12T12:07:53.466Z,11.57
2022-09-12T12:10:33.277Z,10.38
2022-09-12T12:13:02.078Z,7.60
2022-09-12T12:15:31.047Z,4.80
2022-09-12T12:18:07.112Z,7.45
2022-09-12T12:20:34.560Z,4.90
2022-09-12T12:23:03.245Z,7.70
2022-09-12T12:25:50.600Z,7.18
2022-09-12T12:28:51.089Z,5.40
2022-09-12T12:31:18.398Z,4.65
2022-09-12T12:34:13.336Z,5.05
2022-09-12T12:36:42.549Z,4.25
2022-09-12T12:39:43.130Z,4.22
2022-09-12T12:42:38.531Z,3.70
2022-09-12T12:45:48.857Z,4.72
2022-09-12T12:48:18.848Z,5.10
2022-09-12T12:50:45.919Z,5.63
2022-09-12T12:53:19.654Z,5.70
2022-09-12T12:55:48.768Z,4.43
2022-09-12T12:58:30.012Z,4.45
2022-09-12T13:01:10.762Z,2.60
2022-09-12T13:03:43.199Z,4.78
2022-09-12T13:06:27.418Z,4.07
2022-09-12T13:09:00.584Z,6.88
2022-09-12T13:11:33.604Z,4.97
2022-09-12T13:14:02.457Z,2.85
2022-09-12T13:16:31.999Z,3.70
2022-09-12T13:19:04.400Z,2.60
2022-09-12T13:21:31.162Z,2.47
2022-09-12T13:24:02.904Z,3.42
2022-09-12T13:26:35.295Z,3.72
2022-09-12T13:29:15.196Z,5.18
2022-09-12T13:31:47.102Z,3.97
2022-09-12T13:34:19.942Z,2.38
2022-09-12T13:37:21.124Z,4.20
2022-09-12T13:39:49.813Z,2.28
2022-09-12T13:42:38.142Z,3.95
2022-09-12T13:45:10.208Z,2.33
2022-09-12T13:47:40.884Z,8.15
2022-09-12T13:50:16.384Z,2.10
2022-09-12T13:52:46.977Z,2.30
2022-09-12T13:55:31.528Z,2.13
2022-09-12T13:58:00.884Z,2.33
2022-09-12T14:00:31.963Z,2.45
2022-09-12T14:03:18.241Z,4.55
2022-09-12T14:05:55.325Z,2.35
2022-09-12T14:08:24.061Z,4.97
2022-09-12T14:10:51.271Z,3.63
2022-09-12T14:13:22.277Z,3.47
2022-09-12T14:15:52.413Z,6.30
2022-09-12T14:18:25.530Z,1.90
2022-09-12T14:20:56.942Z,2.15
2022-09-12T14:23:29.671Z,1.95
2022-09-12T14:25:59.991Z,1.80
2022-09-12T14:28:31.384Z,1.83
2022-09-12T14:31:00.438Z,6.30
2022-09-12T14:33:28.145Z,4.50
2022-09-12T14:36:10.650Z,2.03
2022-09-12T14:38:42.347Z,2.10
2022-09-12T14:41:11.161Z,4.40
2022-09-12T14:43:41.331Z,4.18
2022-09-12T14:46:17.062Z,8.50
2022-09-12T14:48:53.193Z,6.90
2022-09-12T14:51:25.217Z,2.60
2022-09-12T14:53:52.430Z,3.13
2022-09-12T14:56:22.333Z,5.28
2022-09-12T14:58:50.172Z,6.32
2022-09-12T15:01:26.500Z,6.03
2022-09-12T15:03:56.144Z,3.47
2022-09-12T15:06:28.682Z,4.72
2022-09-12T15:08:57.703Z,4.55
2022-09-12T15:11:24.581Z,5.70
2022-09-12T15:13:51.574Z,2.53
2022-09-12T15:16:18.869Z,3.00
2022-09-12T15:18:46.220Z,4.60
2022-09-12T15:21:16.566Z,4.95
2022-09-12T15:23:46.936Z,3.08
2022-09-12T15:26:15.673Z,4.25
2022-09-12T15:28:42.999Z,3.38
2022-09-12T15:31:19.068Z,4.80
2022-09-12T15:33:46.211Z,3.28
2022-09-12T15:36:16.440Z,3.33
2022-09-12T15:38:45.488Z,2.00
2022-09-12T15:41:15.773Z,4.93
2022-09-12T15:43:42.647Z,1.90
2022-09-12T15:46:12.054Z,2.28
2022-09-12T15:48:39.306Z,2.10
2022-09-12T15:51:13.422Z,3.63
2022-09-12T15:53:47.462Z,3.88
2022-09-12T15:56:16.279Z,4.28
2022-09-12T15:58:57.623Z,2.03
2022-09-12T16:01:27.365Z,2.00
2022-09-12T16:03:54.686Z,3.40
2022-09-12T16:06:22.257Z,2.17
2022-09-12T16:08:50.513Z,6.55
2022-09-12T16:11:21.004Z,2.85
2022-09-12T16:13:48.135Z,3.40
2022-09-12T16:16:15.023Z,3.35
2022-09-12T16:18:42.339Z,1.80
2022-09-12T16:21:14.204Z,4.95
2022-09-12T16:23:42.782Z,4.63
2022-09-12T16:26:11.061Z,3.00
2022-09-12T16:28:38.013Z,2.33
2022-09-12T16:31:06.973Z,7.40
2022-09-12T16:33:34.366Z,2.22
2022-09-12T16:36:03.517Z,2.03
2022-09-12T16:38:30.551Z,3.00
2022-09-12T16:41:00.980Z,2.65
2022-09-12T16:43:29.749Z,2.75
2022-09-12T16:46:04.494Z,2.38
2022-09-12T16:48:31.563Z,3.70
2022-09-12T16:51:00.234Z,1.98
2022-09-12T16:53:29.465Z,3.00
2022-09-12T16:55:56.675Z,3.28
2022-09-12T16:58:23.505Z,1.80
2022-09-12T17:01:00.035Z,2.20
2022-09-12T17:03:27.416Z,3.20
2022-09-12T17:05:58.546Z,4.22
2022-09-12T17:08:25.448Z,2.25
2022-09-12T17:10:52.917Z,2.13
2022-09-12T17:13:19.659Z,2.65
2022-09-12T17:15:46.607Z,2.63
2022-09-12T17:18:15.199Z,3.55
2022-09-12T17:20:42.342Z,4.40
2022-09-12T17:23:10.000Z,3.05
2022-09-12T17:25:37.030Z,3.17
2022-09-12T17:28:07.428Z,2.35
2022-09-12T17:30:34.893Z,4.57
2022-09-12T17:33:01.747Z,3.53
2022-09-12T17:35:30.131Z,4.43
2022-09-12T17:37:56.938Z,3.55
2022-09-12T17:40:42.488Z,15.77
2022-09-12T17:43:11.664Z,8.43
2022-09-12T17:45:40.300Z,3.80
2022-09-12T17:48:07.838Z,3.75
2022-09-12T17:50:39.422Z,2.35
2022-09-12T17:53:06.774Z,4.47
2022-09-12T17:55:35.753Z,4.88
2022-09-12T17:58:02.935Z,3.30
2022-09-12T18:00:49.841Z,2.78
2022-09-12T18:03:20.805Z,5.57
2022-09-12T18:05:53.049Z,4.10
2022-09-12T18:08:20.060Z,7.07
2022-09-12T18:10:47.458Z,3.13
2022-09-12T18:13:14.499Z,5.22
2022-09-12T18:15:41.940Z,2.20
2022-09-12T18:18:09.148Z,3.20
2022-09-12T18:20:35.947Z,4.63
2022-09-12T18:23:04.678Z,11.00
2022-09-12T18:25:31.429Z,2.30
2022-09-12T18:27:58.118Z,4.43
2022-09-12T18:30:25.241Z,1.98
2022-09-12T18:32:52.295Z,2.33
2022-09-12T18:35:20.105Z,2.33
2022-09-12T18:37:46.937Z,2.08
2022-09-12T18:40:15.463Z,2.75
2022-09-12T18:42:43.032Z,3.00
2022-09-12T18:45:11.304Z,3.17
2022-09-12T18:47:41.615Z,3.10
2022-09-12T18:50:09.214Z,2.78
2022-09-12T18:52:36.281Z,4.32
2022-09-12T18:55:03.275Z,5.22
2022-09-12T18:57:34.941Z,2.00
2022-09-12T19:00:04.313Z,3.60
2022-09-12T19:02:31.399Z,4.40
2022-09-12T19:04:58.533Z,4.43
2022-09-12T19:07:25.668Z,3.42
2022-09-12T19:09:52.448Z,4.75
2022-09-12T19:12:19.616Z,2.28
2022-09-12T19:14:47.980Z,4.88
2022-09-12T19:17:15.356Z,11.70
2022-09-12T19:19:42.332Z,3.95
2022-09-12T19:22:09.424Z,9.57
2022-09-12T19:24:36.380Z,2.25
2022-09-12T19:27:04.046Z,9.30
2022-09-12T19:29:31.279Z,5.20
2022-09-12T19:32:00.027Z,2.10
2022-09-12T19:34:27.226Z,2.85
2022-09-12T19:36:54.581Z,3.53
2022-09-12T19:39:21.537Z,6.82
2022-09-12T19:41:48.751Z,4.80
2022-09-12T19:44:15.813Z,2.25
2022-09-12T19:46:42.836Z,3.90
2022-09-12T19:49:12.270Z,2.53
2022-09-12T19:51:39.456Z,2.70
2022-09-12T19:54:07.687Z,4.72
2022-09-12T19:56:34.921Z,3.85
2022-09-12T19:59:01.787Z,2.30
2022-09-12T20:01:29.071Z,2.17
2022-09-12T20:03:57.030Z,6.68
2022-09-12T20:06:26.203Z,4.57
2022-09-12T20:08:53.147Z,2.30
2022-09-12T20:11:23.272Z,12.25
2022-09-12T20:13:50.562Z,2.47
2022-09-12T20:16:22.043Z,4.95
2022-09-12T20:18:53.805Z,2.30
2022-09-12T20:21:25.488Z,2.78
2022-09-12T20:23:53.843Z,3.80
2022-09-12T20:26:23.356Z,2.97
2022-09-12T20:28:51.465Z,2.15
2022-09-12T20:31:18.682Z,4.80
2022-09-12T20:33:51.084Z,3.53
2022-09-12T20:36:20.588Z,2.75
2022-09-12T20:38:49.229Z,1.70
2022-09-12T20:41:18.376Z,2.10
2022-09-12T20:43:45.266Z,7.57
2022-09-12T20:46:12.168Z,7.97
2022-09-12T20:48:39.655Z,2.78
2022-09-12T20:51:07.420Z,6.25
2022-09-12T20:53:35.581Z,3.72
2022-09-12T20:56:03.200Z,2.20
2022-09-12T20:58:31.628Z,13.52
2022-09-12T21:00:58.392Z,1.90
2022-09-12T21:03:28.292Z,2.15
2022-09-12T21:05:55.296Z,2.38
2022-09-12T21:08:22.346Z,2.97
2022-09-12T21:10:49.158Z,7.10
2022-09-12T21:13:16.059Z,7.55
2022-09-12T21:15:45.454Z,2.95
2022-09-12T21:18:12.340Z,3.38
2022-09-12T21:20:39.616Z,2.63
2022-09-12T21:23:06.466Z,4.05
2022-09-12T21:25:33.663Z,4.53
2022-09-12T21:28:00.584Z,6.67
2022-09-12T21:30:27.983Z,13.27
2022-09-12T21:32:57.241Z,3.58
2022-09-12T21:35:24.307Z,8.43
2022-09-12T21:37:51.798Z,2.92
2022-09-12T21:40:19.039Z,2.33
2022-09-12T21:42:48.223Z,2.70
2022-09-12T21:45:15.240Z,2.63
2022-09-12T21:47:42.007Z,2.55
2022-09-12T21:50:10.522Z,6.63
2022-09-12T21:52:37.477Z,2.38
2022-09-12T21:55:06.058Z,2.77
2022-09-12T21:57:33.626Z,3.08
2022-09-12T22:00:01.179Z,2.97
2022-09-12T22:02:31.093Z,2.50
2022-09-12T22:04:58.448Z,3.47
2022-09-12T22:07:26.593Z,2.53
2022-09-12T22:09:53.743Z,2.50
2022-09-12T22:12:20.574Z,5.07
2022-09-12T22:14:47.982Z,3.53
2022-09-12T22:17:15.815Z,4.57
2022-09-12T22:19:42.509Z,5.20
2022-09-12T22:22:27.986Z,8.93
2022-09-12T22:24:55.998Z,4.37
2022-09-12T22:27:23.155Z,2.17
2022-09-12T22:29:50.569Z,4.17
2022-09-12T22:32:17.742Z,3.37
2022-09-12T22:34:44.449Z,4.67
2022-09-12T22:37:12.230Z,3.83
2022-09-12T22:39:40.231Z,2.53
2022-09-12T22:42:09.644Z,2.83
2022-09-12T22:44:36.393Z,4.17
2022-09-12T22:47:03.596Z,3.63
2022-09-12T22:49:30.913Z,5.73
2022-09-12T22:51:58.376Z,3.00
2022-09-12T22:54:25.156Z,3.90
2022-09-12T22:56:52.260Z,2.90
2022-09-12T22:59:20.459Z,6.87
2022-09-12T23:01:47.599Z,4.07
2022-09-12T23:04:14.508Z,2.87
2022-09-12T23:06:41.307Z,5.57
2022-09-12T23:09:08.051Z,4.27
2022-09-12T23:11:35.540Z,3.87
2022-09-12T23:14:02.315Z,3.67
2022-09-12T23:16:32.376Z,3.70
2022-09-12T23:18:59.267Z,2.97
2022-09-12T23:21:26.746Z,3.23
2022-09-12T23:23:53.581Z,4.43
2022-09-12T23:26:22.337Z,5.00
2022-09-12T23:28:50.918Z,2.90
2022-09-12T23:31:18.077Z,5.00
2022-09-12T23:33:46.443Z,9.80
2022-09-12T23:36:16.969Z,10.00
2022-09-12T23:38:45.521Z,5.53
2022-09-12T23:41:14.656Z,3.77
2022-09-12T23:43:43.058Z,2.90
2022-09-12T23:46:10.144Z,2.93
2022-09-12T23:48:37.199Z,3.77
2022-09-12T23:51:05.773Z,3.07
2022-09-12T23:53:32.994Z,2.60
2022-09-12T23:55:59.765Z,6.97
2022-09-12T23:58:26.564Z,4.17
